sensor_id;sensor_type;location;lat;lon;timestamp;pressure;altitude;pressure_sealevel;temperature;humidity
75543;BME280;64129;53.508;10.476;2023-08-12T00:01:53;101287.81;;;19.36;75.27
75543;BME280;64129;53.508;10.476;2023-08-12T00:04:20;101281.63;;;19.34;74.85
75543;BME280;64129;53.508;10.476;2023-08-12T00:06:47;101280.69;;;19.35;75.40
75543;BME280;64129;53.508;10.476;2023-08-12T00:09:14;101274.69;;;19.47;74.32
75543;BME280;64129;53.508;10.476;2023-08-12T00:11:41;101283.53;;;19.32;75.10
75543;BME280;64129;53.508;10.476;2023-08-12T00:14:08;101276.72;;;19.42;74.39
75543;BME280;64129;53.508;10.476;2023-08-12T00:16:35;101271.41;;;19.41;75.54
75543;BME280;64129;53.508;10.476;2023-08-12T00:19:01;101271.00;;;19.14;76.54
75543;BME280;64129;53.508;10.476;2023-08-12T00:21:28;101260.47;;;19.26;76.34
75543;BME280;64129;53.508;10.476;2023-08-12T00:23:54;101252.97;;;19.16;76.50
75543;BME280;64129;53.508;10.476;2023-08-12T00:26:21;101259.06;;;19.19;76.43
75543;BME280;64129;53.508;10.476;2023-08-12T00:28:49;101259.22;;;19.16;76.00
75543;BME280;64129;53.508;10.476;2023-08-12T00:31:16;101265.00;;;19.26;75.99
75543;BME280;64129;53.508;10.476;2023-08-12T00:33:42;101260.25;;;19.31;75.68
75543;BME280;64129;53.508;10.476;2023-08-12T00:36:09;101259.78;;;19.23;76.25
75543;BME280;64129;53.508;10.476;2023-08-12T00:38:36;101246.38;;;19.21;76.16
75543;BME280;64129;53.508;10.476;2023-08-12T00:41:03;101247.25;;;19.22;75.39
75543;BME280;64129;53.508;10.476;2023-08-12T00:43:29;101253.91;;;19.15;76.37
75543;BME280;64129;53.508;10.476;2023-08-12T00:45:56;101249.16;;;19.20;76.59
75543;BME280;64129;53.508;10.476;2023-08-12T00:48:23;101248.66;;;19.29;75.45
75543;BME280;64129;53.508;10.476;2023-08-12T00:50:50;101246.13;;;19.26;76.52
75543;BME280;64129;53.508;10.476;2023-08-12T00:53:16;101239.63;;;19.30;75.77
75543;BME280;64129;53.508;10.476;2023-08-12T00:55:43;101241.69;;;19.25;76.27
75543;BME280;64129;53.508;10.476;2023-08-12T00:58:10;101246.28;;;19.06;77.09
75543;BME280;64129;53.508;10.476;2023-08-12T01:00:40;101251.38;;;19.12;76.92
75543;BME280;64129;53.508;10.476;2023-08-12T01:03:07;101240.75;;;19.09;77.52
75543;BME280;64129;53.508;10.476;2023-08-12T01:05:33;101243.28;;;19.12;75.12
75543;BME280;64129;53.508;10.476;2023-08-12T01:08:00;101242.03;;;19.19;76.61
75543;BME280;64129;53.508;10.476;2023-08-12T01:10:32;101238.47;;;19.18;76.40
75543;BME280;64129;53.508;10.476;2023-08-12T01:13:08;101233.91;;;19.01;77.59
75543;BME280;64129;53.508;10.476;2023-08-12T01:15:40;101230.28;;;19.02;76.82
75543;BME280;64129;53.508;10.476;2023-08-12T01:18:09;101233.41;;;19.12;77.13
75543;BME280;64129;53.508;10.476;2023-08-12T01:20:36;101222.84;;;18.90;78.05
75543;BME280;64129;53.508;10.476;2023-08-12T01:23:12;101223.63;;;18.92;78.01
75543;BME280;64129;53.508;10.476;2023-08-12T01:25:40;101228.38;;;18.87;78.04
75543;BME280;64129;53.508;10.476;2023-08-12T01:28:07;101225.53;;;18.90;77.56
75543;BME280;64129;53.508;10.476;2023-08-12T01:30:36;101218.09;;;18.95;77.79
75543;BME280;64129;53.508;10.476;2023-08-12T01:33:21;101220.06;;;18.92;77.34
75543;BME280;64129;53.508;10.476;2023-08-12T01:36:00;101207.31;;;18.95;77.57
75543;BME280;64129;53.508;10.476;2023-08-12T01:38:31;101216.81;;;18.85;78.21
75543;BME280;64129;53.508;10.476;2023-08-12T01:41:00;101217.59;;;18.87;78.21
75543;BME280;64129;53.508;10.476;2023-08-12T01:43:27;101220.91;;;18.75;78.73
75543;BME280;64129;53.508;10.476;2023-08-12T01:45:56;101218.56;;;18.86;78.10
75543;BME280;64129;53.508;10.476;2023-08-12T01:48:22;101208.81;;;18.84;77.74
75543;BME280;64129;53.508;10.476;2023-08-12T01:50:49;101196.63;;;18.77;78.16
75543;BME280;64129;53.508;10.476;2023-08-12T01:53:16;101200.97;;;18.79;77.33
75543;BME280;64129;53.508;10.476;2023-08-12T01:55:43;101200.66;;;18.85;77.51
75543;BME280;64129;53.508;10.476;2023-08-12T01:58:11;101195.75;;;18.76;78.09
75543;BME280;64129;53.508;10.476;2023-08-12T02:00:37;101194.13;;;18.72;78.59
75543;BME280;64129;53.508;10.476;2023-08-12T02:03:04;101190.50;;;18.73;77.93
75543;BME280;64129;53.508;10.476;2023-08-12T02:05:31;101194.31;;;18.86;77.67
75543;BME280;64129;53.508;10.476;2023-08-12T02:07:57;101200.25;;;18.76;78.47
75543;BME280;64129;53.508;10.476;2023-08-12T02:10:24;101193.84;;;18.78;78.64
75543;BME280;64129;53.508;10.476;2023-08-12T02:12:52;101195.25;;;18.68;78.34
75543;BME280;64129;53.508;10.476;2023-08-12T02:15:18;101195.41;;;18.65;78.72
75543;BME280;64129;53.508;10.476;2023-08-12T02:17:45;101182.88;;;18.64;78.13
75543;BME280;64129;53.508;10.476;2023-08-12T02:20:11;101180.75;;;18.70;78.69
75543;BME280;64129;53.508;10.476;2023-08-12T02:22:38;101178.16;;;18.69;77.89
75543;BME280;64129;53.508;10.476;2023-08-12T02:25:04;101164.19;;;18.61;78.76
75543;BME280;64129;53.508;10.476;2023-08-12T02:27:31;101172.22;;;18.44;79.69
75543;BME280;64129;53.508;10.476;2023-08-12T02:29:58;101168.75;;;18.42;79.15
75543;BME280;64129;53.508;10.476;2023-08-12T02:32:26;101168.13;;;18.54;78.84
75543;BME280;64129;53.508;10.476;2023-08-12T02:34:53;101155.16;;;18.45;79.44
75543;BME280;64129;53.508;10.476;2023-08-12T02:37:19;101159.66;;;18.44;79.45
75543;BME280;64129;53.508;10.476;2023-08-12T02:39:46;101170.66;;;18.39;79.73
75543;BME280;64129;53.508;10.476;2023-08-12T02:42:13;101160.81;;;18.38;79.58
75543;BME280;64129;53.508;10.476;2023-08-12T02:44:40;101156.25;;;18.41;79.28
75543;BME280;64129;53.508;10.476;2023-08-12T02:47:06;101158.63;;;18.47;79.36
75543;BME280;64129;53.508;10.476;2023-08-12T02:49:32;101152.72;;;18.38;79.62
75543;BME280;64129;53.508;10.476;2023-08-12T02:51:59;101151.00;;;18.37;79.38
75543;BME280;64129;53.508;10.476;2023-08-12T02:54:26;101156.97;;;18.25;79.89
75543;BME280;64129;53.508;10.476;2023-08-12T02:56:52;101149.56;;;18.30;80.20
75543;BME280;64129;53.508;10.476;2023-08-12T02:59:18;101152.50;;;18.07;81.10
75543;BME280;64129;53.508;10.476;2023-08-12T03:01:45;101155.09;;;18.27;80.08
75543;BME280;64129;53.508;10.476;2023-08-12T03:04:11;101142.44;;;18.29;79.78
75543;BME280;64129;53.508;10.476;2023-08-12T03:06:38;101140.69;;;18.28;80.02
75543;BME280;64129;53.508;10.476;2023-08-12T03:09:05;101134.91;;;18.19;80.44
75543;BME280;64129;53.508;10.476;2023-08-12T03:11:32;101137.81;;;18.14;81.16
75543;BME280;64129;53.508;10.476;2023-08-12T03:14:00;101139.56;;;18.15;81.03
75543;BME280;64129;53.508;10.476;2023-08-12T03:16:27;101144.47;;;18.24;79.98
75543;BME280;64129;53.508;10.476;2023-08-12T03:18:53;101135.25;;;18.30;80.57
75543;BME280;64129;53.508;10.476;2023-08-12T03:21:20;101135.78;;;18.19;80.82
75543;BME280;64129;53.508;10.476;2023-08-12T03:23:47;101134.59;;;18.25;81.18
75543;BME280;64129;53.508;10.476;2023-08-12T03:26:14;101127.72;;;18.19;80.41
75543;BME280;64129;53.508;10.476;2023-08-12T03:28:41;101128.72;;;17.98;81.72
75543;BME280;64129;53.508;10.476;2023-08-12T03:31:09;101126.28;;;18.12;81.37
75543;BME280;64129;53.508;10.476;2023-08-12T03:33:35;101124.00;;;18.22;80.68
75543;BME280;64129;53.508;10.476;2023-08-12T03:36:03;101124.00;;;18.03;81.51
75543;BME280;64129;53.508;10.476;2023-08-12T03:38:30;101134.63;;;18.06;81.70
75543;BME280;64129;53.508;10.476;2023-08-12T03:40:56;101129.19;;;18.07;81.28
75543;BME280;64129;53.508;10.476;2023-08-12T03:43:23;101132.28;;;18.17;80.91
75543;BME280;64129;53.508;10.476;2023-08-12T03:45:51;101124.88;;;18.22;80.09
75543;BME280;64129;53.508;10.476;2023-08-12T03:48:18;101119.78;;;18.16;81.13
75543;BME280;64129;53.508;10.476;2023-08-12T03:50:45;101122.94;;;18.07;81.59
75543;BME280;64129;53.508;10.476;2023-08-12T03:53:13;101132.28;;;18.17;81.53
75543;BME280;64129;53.508;10.476;2023-08-12T03:55:39;101128.38;;;18.05;82.14
75543;BME280;64129;53.508;10.476;2023-08-12T03:58:07;101113.69;;;17.94;83.00
75543;BME280;64129;53.508;10.476;2023-08-12T04:00:34;101119.38;;;18.06;83.19
75543;BME280;64129;53.508;10.476;2023-08-12T04:03:02;101117.34;;;17.93;83.79
75543;BME280;64129;53.508;10.476;2023-08-12T04:05:28;101121.75;;;17.94;83.99
75543;BME280;64129;53.508;10.476;2023-08-12T04:07:55;101124.16;;;18.00;82.50
75543;BME280;64129;53.508;10.476;2023-08-12T04:10:21;101113.06;;;17.89;83.07
75543;BME280;64129;53.508;10.476;2023-08-12T04:12:48;101119.66;;;18.00;82.99
75543;BME280;64129;53.508;10.476;2023-08-12T04:15:14;101108.63;;;17.88;83.30
75543;BME280;64129;53.508;10.476;2023-08-12T04:17:41;101115.53;;;17.93;83.41
75543;BME280;64129;53.508;10.476;2023-08-12T04:20:08;101110.56;;;18.03;82.87
75543;BME280;64129;53.508;10.476;2023-08-12T04:22:36;101102.81;;;17.97;83.03
75543;BME280;64129;53.508;10.476;2023-08-12T04:25:03;101105.56;;;17.95;83.98
75543;BME280;64129;53.508;10.476;2023-08-12T04:27:30;101108.78;;;17.85;85.03
75543;BME280;64129;53.508;10.476;2023-08-12T04:29:58;101114.31;;;17.82;85.62
75543;BME280;64129;53.508;10.476;2023-08-12T04:32:25;101114.25;;;17.63;86.51
75543;BME280;64129;53.508;10.476;2023-08-12T04:34:52;101113.00;;;17.71;86.64
75543;BME280;64129;53.508;10.476;2023-08-12T04:37:19;101115.59;;;17.92;85.72
75543;BME280;64129;53.508;10.476;2023-08-12T04:39:46;101119.78;;;17.97;84.90
75543;BME280;64129;53.508;10.476;2023-08-12T04:42:13;101122.16;;;18.05;82.83
75543;BME280;64129;53.508;10.476;2023-08-12T04:44:40;101116.16;;;17.98;80.87
75543;BME280;64129;53.508;10.476;2023-08-12T04:47:07;101112.69;;;17.96;82.54
75543;BME280;64129;53.508;10.476;2023-08-12T04:49:35;101120.81;;;17.95;82.96
75543;BME280;64129;53.508;10.476;2023-08-12T04:52:02;101126.50;;;17.89;82.96
75543;BME280;64129;53.508;10.476;2023-08-12T04:54:29;101132.03;;;17.86;83.78
75543;BME280;64129;53.508;10.476;2023-08-12T04:56:55;101129.69;;;17.97;82.61
75543;BME280;64129;53.508;10.476;2023-08-12T04:59:23;101126.03;;;17.98;83.21
75543;BME280;64129;53.508;10.476;2023-08-12T05:01:49;101124.84;;;18.05;82.85
75543;BME280;64129;53.508;10.476;2023-08-12T05:04:24;101122.00;;;18.08;82.00
75543;BME280;64129;53.508;10.476;2023-08-12T05:06:51;101135.69;;;18.21;82.15
75543;BME280;64129;53.508;10.476;2023-08-12T05:09:18;101138.09;;;18.27;78.01
75543;BME280;64129;53.508;10.476;2023-08-12T05:11:45;101143.75;;;18.02;83.32
75543;BME280;64129;53.508;10.476;2023-08-12T05:14:11;101136.78;;;17.98;83.56
75543;BME280;64129;53.508;10.476;2023-08-12T05:16:38;101116.75;;;18.05;83.02
75543;BME280;64129;53.508;10.476;2023-08-12T05:19:04;101100.50;;;18.08;83.53
75543;BME280;64129;53.508;10.476;2023-08-12T05:21:31;101090.44;;;18.12;84.01
75543;BME280;64129;53.508;10.476;2023-08-12T05:23:58;101077.09;;;18.10;84.33
75543;BME280;64129;53.508;10.476;2023-08-12T05:26:24;101086.34;;;18.22;85.33
75543;BME280;64129;53.508;10.476;2023-08-12T05:28:51;101091.75;;;18.03;87.46
75543;BME280;64129;53.508;10.476;2023-08-12T05:31:17;101086.34;;;18.22;86.56
75543;BME280;64129;53.508;10.476;2023-08-12T05:33:44;101097.25;;;18.19;86.72
75543;BME280;64129;53.508;10.476;2023-08-12T05:36:10;101098.47;;;18.30;86.13
75543;BME280;64129;53.508;10.476;2023-08-12T05:38:37;101097.06;;;18.41;85.39
75543;BME280;64129;53.508;10.476;2023-08-12T05:41:03;101100.50;;;18.25;86.91
75543;BME280;64129;53.508;10.476;2023-08-12T05:43:33;101098.94;;;18.38;86.68
75543;BME280;64129;53.508;10.476;2023-08-12T05:46:00;101102.69;;;18.53;84.52
75543;BME280;64129;53.508;10.476;2023-08-12T05:48:28;101114.31;;;18.54;84.37
75543;BME280;64129;53.508;10.476;2023-08-12T05:50:54;101109.91;;;18.70;82.81
75543;BME280;64129;53.508;10.476;2023-08-12T05:53:21;101108.69;;;18.77;82.33
75543;BME280;64129;53.508;10.476;2023-08-12T05:55:48;101115.63;;;18.64;83.14
75543;BME280;64129;53.508;10.476;2023-08-12T05:58:14;101106.59;;;18.65;82.34
75543;BME280;64129;53.508;10.476;2023-08-12T06:00:41;101113.41;;;18.72;81.81
75543;BME280;64129;53.508;10.476;2023-08-12T06:03:12;101117.03;;;18.71;82.24
75543;BME280;64129;53.508;10.476;2023-08-12T06:05:40;101121.66;;;18.86;78.64
75543;BME280;64129;53.508;10.476;2023-08-12T06:08:07;101118.06;;;19.03;81.12
75543;BME280;64129;53.508;10.476;2023-08-12T06:10:34;101125.13;;;18.88;81.56
75543;BME280;64129;53.508;10.476;2023-08-12T06:15:35;101133.75;;;18.95;80.05
75543;BME280;64129;53.508;10.476;2023-08-12T06:18:02;101143.56;;;18.96;82.22
75543;BME280;64129;53.508;10.476;2023-08-12T06:20:29;101135.25;;;19.00;79.85
75543;BME280;64129;53.508;10.476;2023-08-12T06:22:56;101131.84;;;19.14;81.12
75543;BME280;64129;53.508;10.476;2023-08-12T06:25:22;101136.47;;;19.12;79.67
75543;BME280;64129;53.508;10.476;2023-08-12T06:27:49;101132.09;;;19.10;81.36
75543;BME280;64129;53.508;10.476;2023-08-12T06:30:15;101120.09;;;19.32;79.72
75543;BME280;64129;53.508;10.476;2023-08-12T06:32:42;101116.56;;;19.15;81.78
75543;BME280;64129;53.508;10.476;2023-08-12T06:35:08;101111.56;;;19.24;81.79
75543;BME280;64129;53.508;10.476;2023-08-12T06:37:35;101106.19;;;19.40;82.21
75543;BME280;64129;53.508;10.476;2023-08-12T06:40:03;101103.19;;;19.46;82.62
75543;BME280;64129;53.508;10.476;2023-08-12T06:42:30;101105.63;;;19.51;80.79
75543;BME280;64129;53.508;10.476;2023-08-12T06:44:58;101112.84;;;19.50;80.57
75543;BME280;64129;53.508;10.476;2023-08-12T06:47:25;101110.16;;;19.50;78.66
75543;BME280;64129;53.508;10.476;2023-08-12T06:49:53;101103.97;;;19.48;80.54
75543;BME280;64129;53.508;10.476;2023-08-12T06:52:20;101105.41;;;19.55;80.46
75543;BME280;64129;53.508;10.476;2023-08-12T06:54:46;101108.13;;;19.71;80.25
75543;BME280;64129;53.508;10.476;2023-08-12T06:57:13;101099.50;;;19.65;81.23
75543;BME280;64129;53.508;10.476;2023-08-12T06:59:39;101093.41;;;19.77;80.23
75543;BME280;64129;53.508;10.476;2023-08-12T07:02:06;101090.72;;;19.77;81.63
75543;BME280;64129;53.508;10.476;2023-08-12T07:04:33;101077.97;;;19.80;81.86
75543;BME280;64129;53.508;10.476;2023-08-12T07:06:59;101081.97;;;19.89;80.47
75543;BME280;64129;53.508;10.476;2023-08-12T07:09:26;101076.41;;;19.92;80.71
75543;BME280;64129;53.508;10.476;2023-08-12T07:11:52;101077.00;;;19.97;80.73
75543;BME280;64129;53.508;10.476;2023-08-12T07:14:19;101075.31;;;20.10;81.29
75543;BME280;64129;53.508;10.476;2023-08-12T07:16:45;101081.44;;;19.98;80.45
75543;BME280;64129;53.508;10.476;2023-08-12T07:19:12;101082.03;;;20.03;80.18
75543;BME280;64129;53.508;10.476;2023-08-12T07:21:39;101082.31;;;20.14;80.24
75543;BME280;64129;53.508;10.476;2023-08-12T07:24:06;101077.78;;;20.15;79.99
75543;BME280;64129;53.508;10.476;2023-08-12T07:26:32;101072.91;;;20.21;79.74
75543;BME280;64129;53.508;10.476;2023-08-12T07:28:59;101082.88;;;20.35;78.51
75543;BME280;64129;53.508;10.476;2023-08-12T07:31:25;101076.88;;;20.30;79.81
75543;BME280;64129;53.508;10.476;2023-08-12T07:33:52;101069.38;;;20.35;79.50
75543;BME280;64129;53.508;10.476;2023-08-12T07:36:19;101070.25;;;20.51;78.13
75543;BME280;64129;53.508;10.476;2023-08-12T07:38:45;101064.47;;;20.58;78.79
75543;BME280;64129;53.508;10.476;2023-08-12T07:41:12;101064.47;;;20.58;78.22
75543;BME280;64129;53.508;10.476;2023-08-12T07:43:38;101068.28;;;20.69;78.54
75543;BME280;64129;53.508;10.476;2023-08-12T07:46:05;101066.16;;;20.74;77.97
75543;BME280;64129;53.508;10.476;2023-08-12T07:48:34;101060.22;;;20.83;77.19
75543;BME280;64129;53.508;10.476;2023-08-12T07:51:01;101058.09;;;20.89;76.90
75543;BME280;64129;53.508;10.476;2023-08-12T07:53:27;101058.59;;;20.95;76.74
75543;BME280;64129;53.508;10.476;2023-08-12T07:55:54;101059.56;;;20.94;76.46
75543;BME280;64129;53.508;10.476;2023-08-12T07:58:20;101053.94;;;20.83;76.62
75543;BME280;64129;53.508;10.476;2023-08-12T08:00:47;101063.13;;;20.95;76.21
75543;BME280;64129;53.508;10.476;2023-08-12T08:03:13;101062.16;;;20.96;78.00
75543;BME280;64129;53.508;10.476;2023-08-12T08:05:40;101062.75;;;21.01;79.55
75543;BME280;64129;53.508;10.476;2023-08-12T08:08:08;101063.50;;;20.89;77.76
75543;BME280;64129;53.508;10.476;2023-08-12T08:10:35;101065.34;;;21.02;77.61
75543;BME280;64129;53.508;10.476;2023-08-12T08:13:01;101061.47;;;21.06;77.46
75543;BME280;64129;53.508;10.476;2023-08-12T08:15:28;101064.28;;;21.05;76.43
75543;BME280;64129;53.508;10.476;2023-08-12T08:17:54;101063.69;;;21.14;79.03
75543;BME280;64129;53.508;10.476;2023-08-12T08:20:21;101059.34;;;21.11;78.47
75543;BME280;64129;53.508;10.476;2023-08-12T08:22:47;101051.94;;;21.15;79.78
75543;BME280;64129;53.508;10.476;2023-08-12T08:25:14;101052.94;;;21.28;79.22
75543;BME280;64129;53.508;10.476;2023-08-12T08:27:40;101058.53;;;21.39;75.90
75543;BME280;64129;53.508;10.476;2023-08-12T08:30:09;101057.09;;;21.34;77.44
75543;BME280;64129;53.508;10.476;2023-08-12T08:32:36;101059.66;;;21.49;76.45
75543;BME280;64129;53.508;10.476;2023-08-12T08:35:02;101058.91;;;21.62;75.57
75543;BME280;64129;53.508;10.476;2023-08-12T08:37:29;101060.09;;;21.85;75.33
75543;BME280;64129;53.508;10.476;2023-08-12T08:39:55;101056.00;;;21.65;75.07
75543;BME280;64129;53.508;10.476;2023-08-12T08:42:24;101060.97;;;21.85;77.61
75543;BME280;64129;53.508;10.476;2023-08-12T08:44:58;101062.31;;;22.06;75.33
75543;BME280;64129;53.508;10.476;2023-08-12T08:47:27;101058.19;;;21.72;74.95
75543;BME280;64129;53.508;10.476;2023-08-12T08:49:55;101058.47;;;21.82;75.53
75543;BME280;64129;53.508;10.476;2023-08-12T08:52:24;101056.03;;;21.92;74.49
75543;BME280;64129;53.508;10.476;2023-08-12T08:54:51;101068.13;;;21.86;76.35
75543;BME280;64129;53.508;10.476;2023-08-12T08:57:18;101056.50;;;21.98;75.30
75543;BME280;64129;53.508;10.476;2023-08-12T08:59:46;101060.59;;;21.91;77.73
75543;BME280;64129;53.508;10.476;2023-08-12T09:02:17;101053.03;;;21.96;77.91
75543;BME280;64129;53.508;10.476;2023-08-12T09:04:44;101052.81;;;21.99;77.72
75543;BME280;64129;53.508;10.476;2023-08-12T09:07:12;101046.09;;;21.92;79.67
75543;BME280;64129;53.508;10.476;2023-08-12T09:09:46;101049.44;;;21.69;80.33
75543;BME280;64129;53.508;10.476;2023-08-12T09:12:16;101047.63;;;21.96;78.98
75543;BME280;64129;53.508;10.476;2023-08-12T09:14:43;101045.84;;;22.09;80.74
75543;BME280;64129;53.508;10.476;2023-08-12T09:17:10;101047.34;;;22.28;78.42
75543;BME280;64129;53.508;10.476;2023-08-12T09:19:36;101047.13;;;22.31;78.02
75543;BME280;64129;53.508;10.476;2023-08-12T09:22:04;101042.50;;;22.33;78.15
75543;BME280;64129;53.508;10.476;2023-08-12T09:24:31;101035.88;;;22.37;76.92
75543;BME280;64129;53.508;10.476;2023-08-12T09:26:58;101025.66;;;22.67;77.23
75543;BME280;64129;53.508;10.476;2023-08-12T09:29:32;101032.84;;;22.81;75.89
75543;BME280;64129;53.508;10.476;2023-08-12T09:32:12;101022.13;;;23.05;74.15
75543;BME280;64129;53.508;10.476;2023-08-12T09:34:53;101027.56;;;23.05;75.06
75543;BME280;64129;53.508;10.476;2023-08-12T09:37:21;101030.94;;;22.96;73.50
75543;BME280;64129;53.508;10.476;2023-08-12T09:39:49;101028.97;;;22.98;75.05
75543;BME280;64129;53.508;10.476;2023-08-12T09:42:17;101029.41;;;22.39;75.00
75543;BME280;64129;53.508;10.476;2023-08-12T09:44:44;101024.81;;;22.67;76.97
75543;BME280;64129;53.508;10.476;2023-08-12T09:47:11;101030.72;;;22.99;76.31
75543;BME280;64129;53.508;10.476;2023-08-12T09:49:38;101034.47;;;22.84;76.06
75543;BME280;64129;53.508;10.476;2023-08-12T09:52:06;101035.63;;;22.80;73.66
75543;BME280;64129;53.508;10.476;2023-08-12T09:54:34;101029.28;;;23.06;72.52
75543;BME280;64129;53.508;10.476;2023-08-12T09:57:03;101029.50;;;23.03;73.98
75543;BME280;64129;53.508;10.476;2023-08-12T09:59:31;101026.16;;;22.99;73.54
75543;BME280;64129;53.508;10.476;2023-08-12T10:01:59;101025.59;;;23.32;72.50
75543;BME280;64129;53.508;10.476;2023-08-12T10:04:28;101015.91;;;23.41;72.80
75543;BME280;64129;53.508;10.476;2023-08-12T10:06:55;101016.91;;;23.27;72.62
75543;BME280;64129;53.508;10.476;2023-08-12T10:09:22;101017.31;;;23.47;nan
75543;BME280;64129;53.508;10.476;2023-08-12T10:11:51;101018.63;;;23.41;72.46
75543;BME280;64129;53.508;10.476;2023-08-12T10:14:19;101007.97;;;23.51;70.81
75543;BME280;64129;53.508;10.476;2023-08-12T10:16:46;101005.75;;;23.19;72.89
75543;BME280;64129;53.508;10.476;2023-08-12T10:19:14;101007.38;;;23.34;72.06
75543;BME280;64129;53.508;10.476;2023-08-12T10:21:43;101004.13;;;23.29;75.14
75543;BME280;64129;53.508;10.476;2023-08-12T10:24:10;101006.31;;;23.24;72.53
75543;BME280;64129;53.508;10.476;2023-08-12T10:26:40;100994.56;;;23.37;73.65
75543;BME280;64129;53.508;10.476;2023-08-12T10:29:06;100993.41;;;23.15;76.04
75543;BME280;64129;53.508;10.476;2023-08-12T10:31:34;100999.69;;;23.03;76.80
75543;BME280;64129;53.508;10.476;2023-08-12T10:34:00;100984.66;;;22.99;77.28
75543;BME280;64129;53.508;10.476;2023-08-12T10:36:27;100992.09;;;23.21;74.06
75543;BME280;64129;53.508;10.476;2023-08-12T10:38:56;100991.97;;;23.22;74.90
75543;BME280;64129;53.508;10.476;2023-08-12T10:41:24;100986.53;;;23.22;74.59
75543;BME280;64129;53.508;10.476;2023-08-12T10:43:52;100981.75;;;23.39;73.05
75543;BME280;64129;53.508;10.476;2023-08-12T10:49:08;100985.66;;;23.60;71.96
75543;BME280;64129;53.508;10.476;2023-08-12T10:51:45;100980.97;;;23.62;70.53
75543;BME280;64129;53.508;10.476;2023-08-12T10:54:20;100978.88;;;23.53;70.59
75543;BME280;64129;53.508;10.476;2023-08-12T11:04:51;100970.91;;;23.39;73.69
75543;BME280;64129;53.508;10.476;2023-08-12T11:07:20;100972.56;;;23.28;74.91
75543;BME280;64129;53.508;10.476;2023-08-12T11:09:52;100962.16;;;23.22;77.30
75543;BME280;64129;53.508;10.476;2023-08-12T11:12:33;100962.59;;;23.29;74.11
75543;BME280;64129;53.508;10.476;2023-08-12T11:15:01;100958.94;;;23.54;71.74
75543;BME280;64129;53.508;10.476;2023-08-12T11:17:35;100961.97;;;23.49;70.22
75543;BME280;64129;53.508;10.476;2023-08-12T11:20:04;100956.34;;;23.65;70.65
75543;BME280;64129;53.508;10.476;2023-08-12T11:22:33;100958.16;;;23.88;70.59
75543;BME280;64129;53.508;10.476;2023-08-12T11:25:01;100953.94;;;23.84;69.36
75543;BME280;64129;53.508;10.476;2023-08-12T11:27:28;100952.88;;;23.63;69.57
75543;BME280;64129;53.508;10.476;2023-08-12T11:29:55;100957.66;;;23.47;71.96
75543;BME280;64129;53.508;10.476;2023-08-12T11:32:21;100956.31;;;23.52;71.55
75543;BME280;64129;53.508;10.476;2023-08-12T11:34:48;100948.41;;;23.25;73.84
75543;BME280;64129;53.508;10.476;2023-08-12T11:37:14;100954.56;;;23.27;74.12
75543;BME280;64129;53.508;10.476;2023-08-12T11:39:42;100954.88;;;23.36;73.07
75543;BME280;64129;53.508;10.476;2023-08-12T11:42:09;100959.94;;;23.03;75.85
75543;BME280;64129;53.508;10.476;2023-08-12T11:44:35;100956.88;;;23.08;73.03
75543;BME280;64129;53.508;10.476;2023-08-12T11:47:02;100957.72;;;23.21;73.01
75543;BME280;64129;53.508;10.476;2023-08-12T11:49:28;100950.78;;;23.17;73.30
75543;BME280;64129;53.508;10.476;2023-08-12T11:51:55;100946.69;;;23.24;73.43
75543;BME280;64129;53.508;10.476;2023-08-12T11:54:22;100937.56;;;23.13;75.51
75543;BME280;64129;53.508;10.476;2023-08-12T11:56:48;100941.50;;;23.09;75.42
75543;BME280;64129;53.508;10.476;2023-08-12T11:59:15;100933.69;;;23.04;74.59
75543;BME280;64129;53.508;10.476;2023-08-12T12:01:46;100935.44;;;23.05;76.03
75543;BME280;64129;53.508;10.476;2023-08-12T12:04:15;100936.19;;;23.07;77.91
75543;BME280;64129;53.508;10.476;2023-08-12T12:06:42;100937.47;;;23.14;78.86
75543;BME280;64129;53.508;10.476;2023-08-12T12:09:09;100931.53;;;22.84;80.83
75543;BME280;64129;53.508;10.476;2023-08-12T12:11:37;100934.69;;;22.65;81.54
75543;BME280;64129;53.508;10.476;2023-08-12T12:16:59;100938.28;;;22.91;80.68
75543;BME280;64129;53.508;10.476;2023-08-12T12:19:27;100935.88;;;22.99;77.16
75543;BME280;64129;53.508;10.476;2023-08-12T12:21:53;100934.25;;;22.96;76.58
75543;BME280;64129;53.508;10.476;2023-08-12T12:24:20;100928.28;;;23.04;77.67
75543;BME280;64129;53.508;10.476;2023-08-12T12:26:47;100925.25;;;22.96;78.24
75543;BME280;64129;53.508;10.476;2023-08-12T12:29:14;100921.34;;;22.87;80.78
75543;BME280;64129;53.508;10.476;2023-08-12T12:31:41;100914.28;;;23.10;80.62
75543;BME280;64129;53.508;10.476;2023-08-12T12:34:08;100899.00;;;23.09;80.24
75543;BME280;64129;53.508;10.476;2023-08-12T12:36:37;100894.03;;;23.03;82.32
75543;BME280;64129;53.508;10.476;2023-08-12T12:39:04;100892.25;;;23.27;82.70
75543;BME280;64129;53.508;10.476;2023-08-12T12:41:31;100887.91;;;23.25;80.33
75543;BME280;64129;53.508;10.476;2023-08-12T12:43:59;100884.88;;;23.17;80.17
75543;BME280;64129;53.508;10.476;2023-08-12T12:46:26;100863.09;;;23.18;81.78
75543;BME280;64129;53.508;10.476;2023-08-12T12:48:52;100847.09;;;23.63;78.17
75543;BME280;64129;53.508;10.476;2023-08-12T12:51:19;100855.50;;;23.71;78.02
75543;BME280;64129;53.508;10.476;2023-08-12T12:53:46;100863.25;;;24.00;76.14
75543;BME280;64129;53.508;10.476;2023-08-12T12:56:12;100865.25;;;24.20;77.34
75543;BME280;64129;53.508;10.476;2023-08-12T12:58:39;100863.00;;;24.49;75.69